sensor_id;sensor_type;location;lat;lon;timestamp;P1;durP1;ratioP1;P2;durP2;ratioP2
19543;SDS011;9917;51.256;7.152;2022-07-05T00:00:24;5.25;;;1.92;;
19543;SDS011;9917;51.256;7.152;2022-07-05T00:02:50;3.08;;;1.80;;
19543;SDS011;9917;51.256;7.152;2022-07-05T00:05:16;4.22;;;2.15;;
19543;SDS011;9917;51.256;7.152;2022-07-05T00:07:42;4.43;;;2.08;;
19543;SDS011;9917;51.256;7.152;2022-07-05T00:10:08;6.13;;;2.15;;
19543;SDS011;9917;51.256;7.152;2022-07-05T00:12:34;2.92;;;1.75;;
19543;SDS011;9917;51.256;7.152;2022-07-05T00:15:02;4.22;;;2.42;;
19543;SDS011;9917;51.256;7.152;2022-07-05T00:17:28;2.38;;;1.90;;
19543;SDS011;9917;51.256;7.152;2022-07-05T00:19:54;3.72;;;1.92;;
19543;SDS011;9917;51.256;7.152;2022-07-05T00:22:20;2.92;;;2.08;;
19543;SDS011;9917;51.256;7.152;2022-07-05T00:24:46;3.20;;;2.15;;
19543;SDS011;9917;51.256;7.152;2022-07-05T00:27:12;3.47;;;2.08;;
19543;SDS011;9917;51.256;7.152;2022-07-05T00:29:38;4.38;;;2.33;;
19543;SDS011;9917;51.256;7.152;2022-07-05T00:32:06;3.00;;;2.15;;
19543;SDS011;9917;51.256;7.152;2022-07-05T00:34:32;4.65;;;2.08;;
19543;SDS011;9917;51.256;7.152;2022-07-05T00:36:58;4.30;;;2.08;;
19543;SDS011;9917;51.256;7.152;2022-07-05T00:39:24;3.63;;;2.08;;
19543;SDS011;9917;51.256;7.152;2022-07-05T00:41:50;8.25;;;2.38;;
19543;SDS011;9917;51.256;7.152;2022-07-05T00:44:16;4.63;;;2.10;;
19543;SDS011;9917;51.256;7.152;2022-07-05T00:46:43;6.25;;;2.05;;
19543;SDS011;9917;51.256;7.152;2022-07-05T00:49:10;2.95;;;2.05;;
19543;SDS011;9917;51.256;7.152;2022-07-05T00:51:37;3.78;;;2.58;;
19543;SDS011;9917;51.256;7.152;2022-07-05T00:54:05;2.47;;;2.10;;
19543;SDS011;9917;51.256;7.152;2022-07-05T00:56:32;4.45;;;2.30;;
19543;SDS011;9917;51.256;7.152;2022-07-05T00:59:00;4.80;;;2.63;;
19543;SDS011;9917;51.256;7.152;2022-07-05T01:01:26;6.22;;;2.60;;
19543;SDS011;9917;51.256;7.152;2022-07-05T01:03:52;4.30;;;2.30;;
19543;SDS011;9917;51.256;7.152;2022-07-05T01:06:20;5.38;;;2.20;;
19543;SDS011;9917;51.256;7.152;2022-07-05T01:08:46;3.15;;;2.13;;
19543;SDS011;9917;51.256;7.152;2022-07-05T01:11:12;5.38;;;2.33;;
19543;SDS011;9917;51.256;7.152;2022-07-05T01:13:39;7.63;;;2.92;;
19543;SDS011;9917;51.256;7.152;2022-07-05T01:16:06;4.50;;;2.25;;
19543;SDS011;9917;51.256;7.152;2022-07-05T01:18:33;2.28;;;2.03;;
19543;SDS011;9917;51.256;7.152;2022-07-05T01:20:59;3.70;;;2.70;;
19543;SDS011;9917;51.256;7.152;2022-07-05T01:23:28;5.53;;;2.33;;
19543;SDS011;9917;51.256;7.152;2022-07-05T01:25:56;5.07;;;2.25;;
19543;SDS011;9917;51.256;7.152;2022-07-05T01:28:23;2.75;;;1.90;;
19543;SDS011;9917;51.256;7.152;2022-07-05T01:30:49;6.72;;;2.38;;
19543;SDS011;9917;51.256;7.152;2022-07-05T01:33:16;2.78;;;1.95;;
19543;SDS011;9917;51.256;7.152;2022-07-05T01:35:42;4.70;;;2.20;;
19543;SDS011;9917;51.256;7.152;2022-07-05T01:38:10;6.97;;;2.33;;
19543;SDS011;9917;51.256;7.152;2022-07-05T01:40:38;3.10;;;2.13;;
19543;SDS011;9917;51.256;7.152;2022-07-05T01:43:04;5.15;;;2.10;;
19543;SDS011;9917;51.256;7.152;2022-07-05T01:45:30;4.25;;;1.90;;
19543;SDS011;9917;51.256;7.152;2022-07-05T01:47:56;3.85;;;2.25;;
19543;SDS011;9917;51.256;7.152;2022-07-05T01:50:22;3.65;;;2.00;;
19543;SDS011;9917;51.256;7.152;2022-07-05T01:52:48;4.00;;;1.83;;
19543;SDS011;9917;51.256;7.152;2022-07-05T01:55:16;4.03;;;2.25;;
19543;SDS011;9917;51.256;7.152;2022-07-05T01:57:43;2.58;;;1.80;;
19543;SDS011;9917;51.256;7.152;2022-07-05T02:00:09;3.40;;;2.00;;
19543;SDS011;9917;51.256;7.152;2022-07-05T02:02:37;3.78;;;2.10;;
19543;SDS011;9917;51.256;7.152;2022-07-05T02:05:06;4.32;;;1.90;;
19543;SDS011;9917;51.256;7.152;2022-07-05T02:07:31;4.22;;;1.88;;
19543;SDS011;9917;51.256;7.152;2022-07-05T02:09:58;2.38;;;1.60;;
19543;SDS011;9917;51.256;7.152;2022-07-05T02:12:24;3.28;;;1.88;;
19543;SDS011;9917;51.256;7.152;2022-07-05T02:14:51;2.97;;;1.80;;
19543;SDS011;9917;51.256;7.152;2022-07-05T02:17:17;3.58;;;1.70;;
19543;SDS011;9917;51.256;7.152;2022-07-05T02:19:43;2.97;;;1.92;;
19543;SDS011;9917;51.256;7.152;2022-07-05T02:22:09;4.22;;;1.60;;
19543;SDS011;9917;51.256;7.152;2022-07-05T02:24:35;3.67;;;1.75;;
19543;SDS011;9917;51.256;7.152;2022-07-05T02:27:01;3.22;;;1.92;;
19543;SDS011;9917;51.256;7.152;2022-07-05T02:29:27;3.67;;;1.80;;
19543;SDS011;9917;51.256;7.152;2022-07-05T02:31:55;3.67;;;1.75;;
19543;SDS011;9917;51.256;7.152;2022-07-05T02:34:20;4.43;;;1.65;;
19543;SDS011;9917;51.256;7.152;2022-07-05T02:36:46;3.20;;;1.77;;
19543;SDS011;9917;51.256;7.152;2022-07-05T02:39:12;3.92;;;1.67;;
19543;SDS011;9917;51.256;7.152;2022-07-05T02:41:38;5.57;;;1.67;;
19543;SDS011;9917;51.256;7.152;2022-07-05T02:44:04;2.63;;;1.38;;
19543;SDS011;9917;51.256;7.152;2022-07-05T02:46:30;2.83;;;1.50;;
19543;SDS011;9917;51.256;7.152;2022-07-05T02:48:58;2.83;;;1.80;;
19543;SDS011;9917;51.256;7.152;2022-07-05T02:51:24;4.07;;;1.70;;
19543;SDS011;9917;51.256;7.152;2022-07-05T02:53:50;3.85;;;1.65;;
19543;SDS011;9917;51.256;7.152;2022-07-05T02:56:16;4.82;;;1.63;;
19543;SDS011;9917;51.256;7.152;2022-07-05T02:58:41;4.75;;;1.75;;
19543;SDS011;9917;51.256;7.152;2022-07-05T03:01:08;4.30;;;1.80;;
19543;SDS011;9917;51.256;7.152;2022-07-05T03:03:33;2.28;;;1.58;;
19543;SDS011;9917;51.256;7.152;2022-07-05T03:06:01;3.15;;;1.70;;
19543;SDS011;9917;51.256;7.152;2022-07-05T03:08:27;3.92;;;1.70;;
19543;SDS011;9917;51.256;7.152;2022-07-05T03:10:53;3.58;;;1.77;;
19543;SDS011;9917;51.256;7.152;2022-07-05T03:13:19;3.97;;;1.50;;
19543;SDS011;9917;51.256;7.152;2022-07-05T03:15:45;3.00;;;1.60;;
19543;SDS011;9917;51.256;7.152;2022-07-05T03:18:11;3.80;;;1.65;;
19543;SDS011;9917;51.256;7.152;2022-07-05T03:20:37;4.50;;;1.60;;
19543;SDS011;9917;51.256;7.152;2022-07-05T03:23:04;2.80;;;1.80;;
19543;SDS011;9917;51.256;7.152;2022-07-05T03:25:30;2.47;;;1.55;;
19543;SDS011;9917;51.256;7.152;2022-07-05T03:27:56;3.75;;;2.08;;
19543;SDS011;9917;51.256;7.152;2022-07-05T03:30:22;4.45;;;1.80;;
19543;SDS011;9917;51.256;7.152;2022-07-05T03:32:48;3.13;;;1.58;;
19543;SDS011;9917;51.256;7.152;2022-07-05T03:35:14;2.75;;;1.60;;
19543;SDS011;9917;51.256;7.152;2022-07-05T03:37:40;3.22;;;1.95;;
19543;SDS011;9917;51.256;7.152;2022-07-05T03:40:08;3.35;;;1.80;;
19543;SDS011;9917;51.256;7.152;2022-07-05T03:42:34;2.75;;;1.83;;
19543;SDS011;9917;51.256;7.152;2022-07-05T03:45:00;4.35;;;2.05;;
19543;SDS011;9917;51.256;7.152;2022-07-05T03:47:26;4.60;;;2.28;;
19543;SDS011;9917;51.256;7.152;2022-07-05T03:49:53;5.72;;;2.13;;
19543;SDS011;9917;51.256;7.152;2022-07-05T03:52:19;2.72;;;2.03;;
19543;SDS011;9917;51.256;7.152;2022-07-05T03:54:45;3.30;;;1.95;;
19543;SDS011;9917;51.256;7.152;2022-07-05T03:57:13;4.50;;;1.70;;
19543;SDS011;9917;51.256;7.152;2022-07-05T03:59:38;3.75;;;2.00;;
19543;SDS011;9917;51.256;7.152;2022-07-05T04:02:05;4.38;;;1.90;;
19543;SDS011;9917;51.256;7.152;2022-07-05T04:04:31;3.35;;;2.00;;
19543;SDS011;9917;51.256;7.152;2022-07-05T04:06:57;5.25;;;1.95;;
19543;SDS011;9917;51.256;7.152;2022-07-05T04:09:22;4.82;;;2.55;;
19543;SDS011;9917;51.256;7.152;2022-07-05T04:11:49;6.85;;;2.33;;
19543;SDS011;9917;51.256;7.152;2022-07-05T04:14:16;3.67;;;2.42;;
19543;SDS011;9917;51.256;7.152;2022-07-05T04:16:42;3.38;;;2.22;;
19543;SDS011;9917;51.256;7.152;2022-07-05T04:19:08;3.90;;;2.95;;
19543;SDS011;9917;51.256;7.152;2022-07-05T04:21:34;3.45;;;2.47;;
19543;SDS011;9917;51.256;7.152;2022-07-05T04:24:00;4.85;;;2.50;;
19543;SDS011;9917;51.256;7.152;2022-07-05T04:26:25;7.78;;;2.33;;
19543;SDS011;9917;51.256;7.152;2022-07-05T04:28:52;5.50;;;2.42;;
19543;SDS011;9917;51.256;7.152;2022-07-05T04:31:19;4.30;;;2.80;;
19543;SDS011;9917;51.256;7.152;2022-07-05T04:33:45;2.97;;;2.00;;
19543;SDS011;9917;51.256;7.152;2022-07-05T04:36:11;3.47;;;2.20;;
19543;SDS011;9917;51.256;7.152;2022-07-05T04:38:37;4.25;;;2.53;;
19543;SDS011;9917;51.256;7.152;2022-07-05T04:41:03;5.60;;;2.42;;
19543;SDS011;9917;51.256;7.152;2022-07-05T04:43:29;6.07;;;2.25;;
19543;SDS011;9917;51.256;7.152;2022-07-05T04:45:55;5.03;;;2.58;;
19543;SDS011;9917;51.256;7.152;2022-07-05T04:48:22;6.70;;;2.45;;
19543;SDS011;9917;51.256;7.152;2022-07-05T04:50:48;5.68;;;2.40;;
19543;SDS011;9917;51.256;7.152;2022-07-05T04:53:14;5.82;;;3.00;;
19543;SDS011;9917;51.256;7.152;2022-07-05T04:55:40;5.55;;;2.45;;
19543;SDS011;9917;51.256;7.152;2022-07-05T04:58:06;6.15;;;2.25;;
19543;SDS011;9917;51.256;7.152;2022-07-05T05:00:32;5.70;;;2.38;;
19543;SDS011;9917;51.256;7.152;2022-07-05T05:02:58;6.35;;;2.67;;
19543;SDS011;9917;51.256;7.152;2022-07-05T05:05:26;3.50;;;2.22;;
19543;SDS011;9917;51.256;7.152;2022-07-05T05:07:51;6.55;;;2.38;;
19543;SDS011;9917;51.256;7.152;2022-07-05T05:10:17;5.47;;;2.28;;
19543;SDS011;9917;51.256;7.152;2022-07-05T05:12:43;5.60;;;2.55;;
19543;SDS011;9917;51.256;7.152;2022-07-05T05:15:09;4.45;;;2.03;;
19543;SDS011;9917;51.256;7.152;2022-07-05T05:17:35;4.88;;;2.50;;
19543;SDS011;9917;51.256;7.152;2022-07-05T05:20:03;8.18;;;2.30;;
19543;SDS011;9917;51.256;7.152;2022-07-05T05:22:32;3.30;;;2.25;;
19543;SDS011;9917;51.256;7.152;2022-07-05T05:24:58;6.60;;;2.42;;
19543;SDS011;9917;51.256;7.152;2022-07-05T05:27:23;4.75;;;2.60;;
19543;SDS011;9917;51.256;7.152;2022-07-05T05:29:50;4.45;;;2.88;;
19543;SDS011;9917;51.256;7.152;2022-07-05T05:32:15;5.85;;;2.60;;
19543;SDS011;9917;51.256;7.152;2022-07-05T05:34:41;7.65;;;3.08;;
19543;SDS011;9917;51.256;7.152;2022-07-05T05:37:07;7.57;;;2.90;;
19543;SDS011;9917;51.256;7.152;2022-07-05T05:39:35;5.82;;;2.67;;
19543;SDS011;9917;51.256;7.152;2022-07-05T05:42:01;7.55;;;2.83;;
19543;SDS011;9917;51.256;7.152;2022-07-05T05:44:27;5.40;;;2.60;;
19543;SDS011;9917;51.256;7.152;2022-07-05T05:46:53;3.88;;;2.65;;
19543;SDS011;9917;51.256;7.152;2022-07-05T05:49:19;5.85;;;3.22;;
19543;SDS011;9917;51.256;7.152;2022-07-05T05:51:45;7.68;;;2.20;;
19543;SDS011;9917;51.256;7.152;2022-07-05T05:54:11;5.15;;;2.80;;
19543;SDS011;9917;51.256;7.152;2022-07-05T05:56:38;6.15;;;2.78;;
19543;SDS011;9917;51.256;7.152;2022-07-05T05:59:04;6.47;;;2.78;;
19543;SDS011;9917;51.256;7.152;2022-07-05T06:01:30;6.22;;;2.63;;
19543;SDS011;9917;51.256;7.152;2022-07-05T06:03:56;8.10;;;2.50;;
19543;SDS011;9917;51.256;7.152;2022-07-05T06:06:22;6.05;;;2.65;;
19543;SDS011;9917;51.256;7.152;2022-07-05T06:08:48;3.40;;;2.05;;
19543;SDS011;9917;51.256;7.152;2022-07-05T06:11:14;9.02;;;2.75;;
19543;SDS011;9917;51.256;7.152;2022-07-05T06:13:41;4.50;;;2.00;;
19543;SDS011;9917;51.256;7.152;2022-07-05T06:16:07;4.70;;;1.80;;
19543;SDS011;9917;51.256;7.152;2022-07-05T06:18:33;3.58;;;1.60;;
19543;SDS011;9917;51.256;7.152;2022-07-05T06:20:59;4.03;;;1.80;;
19543;SDS011;9917;51.256;7.152;2022-07-05T06:23:25;3.00;;;1.80;;
19543;SDS011;9917;51.256;7.152;2022-07-05T06:25:51;5.67;;;1.83;;
19543;SDS011;9917;51.256;7.152;2022-07-05T06:28:17;5.25;;;1.80;;
19543;SDS011;9917;51.256;7.152;2022-07-05T06:30:45;3.58;;;1.50;;
19543;SDS011;9917;51.256;7.152;2022-07-05T06:33:11;5.05;;;1.58;;
19543;SDS011;9917;51.256;7.152;2022-07-05T06:35:37;4.80;;;1.80;;
19543;SDS011;9917;51.256;7.152;2022-07-05T06:38:03;5.85;;;2.20;;
19543;SDS011;9917;51.256;7.152;2022-07-05T06:40:31;3.38;;;1.77;;
19543;SDS011;9917;51.256;7.152;2022-07-05T06:42:58;5.78;;;2.05;;
19543;SDS011;9917;51.256;7.152;2022-07-05T06:45:25;2.67;;;1.60;;
19543;SDS011;9917;51.256;7.152;2022-07-05T06:47:56;4.63;;;1.90;;
19543;SDS011;9917;51.256;7.152;2022-07-05T06:50:22;5.25;;;1.70;;
19543;SDS011;9917;51.256;7.152;2022-07-05T06:52:48;6.03;;;2.08;;
19543;SDS011;9917;51.256;7.152;2022-07-05T06:55:15;5.57;;;1.70;;
19543;SDS011;9917;51.256;7.152;2022-07-05T06:57:41;3.75;;;1.50;;
19543;SDS011;9917;51.256;7.152;2022-07-05T07:00:07;3.58;;;1.38;;
19543;SDS011;9917;51.256;7.152;2022-07-05T07:02:34;2.80;;;1.52;;
19543;SDS011;9917;51.256;7.152;2022-07-05T07:05:01;6.00;;;1.60;;
19543;SDS011;9917;51.256;7.152;2022-07-05T07:07:28;3.15;;;1.77;;
19543;SDS011;9917;51.256;7.152;2022-07-05T07:09:56;3.00;;;1.40;;
19543;SDS011;9917;51.256;7.152;2022-07-05T07:12:22;3.50;;;1.58;;
19543;SDS011;9917;51.256;7.152;2022-07-05T07:14:48;4.90;;;1.52;;
19543;SDS011;9917;51.256;7.152;2022-07-05T07:17:14;4.53;;;1.60;;
19543;SDS011;9917;51.256;7.152;2022-07-05T07:19:40;5.00;;;1.38;;
19543;SDS011;9917;51.256;7.152;2022-07-05T07:22:08;4.30;;;1.67;;
19543;SDS011;9917;51.256;7.152;2022-07-05T07:24:34;3.80;;;1.45;;
19543;SDS011;9917;51.256;7.152;2022-07-05T07:27:00;2.63;;;1.30;;
19543;SDS011;9917;51.256;7.152;2022-07-05T07:29:26;2.33;;;0.98;;
19543;SDS011;9917;51.256;7.152;2022-07-05T07:31:52;3.33;;;1.15;;
19543;SDS011;9917;51.256;7.152;2022-07-05T07:34:18;2.97;;;1.25;;
19543;SDS011;9917;51.256;7.152;2022-07-05T07:36:44;2.55;;;1.23;;
19543;SDS011;9917;51.256;7.152;2022-07-05T07:39:12;3.10;;;1.60;;
19543;SDS011;9917;51.256;7.152;2022-07-05T07:41:38;2.00;;;1.00;;
19543;SDS011;9917;51.256;7.152;2022-07-05T07:44:04;2.83;;;1.30;;
19543;SDS011;9917;51.256;7.152;2022-07-05T07:46:31;6.05;;;2.50;;
19543;SDS011;9917;51.256;7.152;2022-07-05T07:48:57;2.33;;;1.10;;
19543;SDS011;9917;51.256;7.152;2022-07-05T07:51:34;3.92;;;1.52;;
19543;SDS011;9917;51.256;7.152;2022-07-05T07:54:00;4.68;;;1.27;;
19543;SDS011;9917;51.256;7.152;2022-07-05T07:56:29;2.10;;;1.00;;
19543;SDS011;9917;51.256;7.152;2022-07-05T07:58:55;4.03;;;1.13;;
19543;SDS011;9917;51.256;7.152;2022-07-05T08:01:21;2.83;;;1.40;;
19543;SDS011;9917;51.256;7.152;2022-07-05T08:03:49;8.25;;;1.70;;
19543;SDS011;9917;51.256;7.152;2022-07-05T08:06:16;3.28;;;1.42;;
19543;SDS011;9917;51.256;7.152;2022-07-05T08:08:42;2.22;;;1.02;;
19543;SDS011;9917;51.256;7.152;2022-07-05T08:11:09;3.38;;;1.08;;
19543;SDS011;9917;51.256;7.152;2022-07-05T08:13:38;2.55;;;1.13;;
19543;SDS011;9917;51.256;7.152;2022-07-05T08:16:04;2.00;;;1.20;;
19543;SDS011;9917;51.256;7.152;2022-07-05T08:18:30;3.33;;;1.40;;
19543;SDS011;9917;51.256;7.152;2022-07-05T08:20:57;2.65;;;1.10;;
19543;SDS011;9917;51.256;7.152;2022-07-05T08:23:23;5.88;;;1.48;;
19543;SDS011;9917;51.256;7.152;2022-07-05T08:25:49;4.78;;;1.40;;
19543;SDS011;9917;51.256;7.152;2022-07-05T08:28:15;5.80;;;1.38;;
19543;SDS011;9917;51.256;7.152;2022-07-05T08:33:13;4.63;;;1.33;;
19543;SDS011;9917;51.256;7.152;2022-07-05T08:35:40;6.18;;;1.48;;
19543;SDS011;9917;51.256;7.152;2022-07-05T08:38:06;3.90;;;1.40;;
19543;SDS011;9917;51.256;7.152;2022-07-05T08:40:32;5.93;;;1.20;;
19543;SDS011;9917;51.256;7.152;2022-07-05T08:43:02;2.95;;;1.13;;
19543;SDS011;9917;51.256;7.152;2022-07-05T08:45:31;2.60;;;1.13;;
19543;SDS011;9917;51.256;7.152;2022-07-05T08:47:58;5.82;;;1.40;;
19543;SDS011;9917;51.256;7.152;2022-07-05T08:50:32;3.83;;;1.40;;
19543;SDS011;9917;51.256;7.152;2022-07-05T08:53:00;2.60;;;1.27;;
19543;SDS011;9917;51.256;7.152;2022-07-05T08:55:26;6.47;;;1.85;;
19543;SDS011;9917;51.256;7.152;2022-07-05T08:57:52;6.10;;;1.55;;
19543;SDS011;9917;51.256;7.152;2022-07-05T09:00:19;6.70;;;1.63;;
19543;SDS011;9917;51.256;7.152;2022-07-05T09:02:45;4.10;;;1.50;;
19543;SDS011;9917;51.256;7.152;2022-07-05T09:05:14;3.45;;;1.10;;
19543;SDS011;9917;51.256;7.152;2022-07-05T09:07:48;5.82;;;1.40;;
19543;SDS011;9917;51.256;7.152;2022-07-05T09:10:28;4.97;;;1.20;;
19543;SDS011;9917;51.256;7.152;2022-07-05T09:12:56;4.50;;;1.10;;
19543;SDS011;9917;51.256;7.152;2022-07-05T09:15:23;1.55;;;0.90;;
19543;SDS011;9917;51.256;7.152;2022-07-05T09:17:52;3.38;;;1.08;;
19543;SDS011;9917;51.256;7.152;2022-07-05T09:20:20;3.25;;;1.05;;
19543;SDS011;9917;51.256;7.152;2022-07-05T09:22:51;1.90;;;1.00;;
19543;SDS011;9917;51.256;7.152;2022-07-05T09:25:19;3.75;;;1.08;;
19543;SDS011;9917;51.256;7.152;2022-07-05T09:27:47;3.45;;;1.23;;
19543;SDS011;9917;51.256;7.152;2022-07-05T09:30:14;3.42;;;1.00;;
19543;SDS011;9917;51.256;7.152;2022-07-05T09:33:02;5.90;;;1.10;;
19543;SDS011;9917;51.256;7.152;2022-07-05T09:35:33;6.70;;;1.23;;
19543;SDS011;9917;51.256;7.152;2022-07-05T09:38:00;2.28;;;1.10;;
19543;SDS011;9917;51.256;7.152;2022-07-05T09:40:27;2.95;;;1.20;;
19543;SDS011;9917;51.256;7.152;2022-07-05T09:42:53;4.93;;;1.25;;
19543;SDS011;9917;51.256;7.152;2022-07-05T09:45:37;4.72;;;0.90;;
19543;SDS011;9917;51.256;7.152;2022-07-05T09:48:03;2.42;;;1.00;;
19543;SDS011;9917;51.256;7.152;2022-07-05T09:50:34;3.78;;;1.02;;
19543;SDS011;9917;51.256;7.152;2022-07-05T09:53:01;4.18;;;1.73;;
19543;SDS011;9917;51.256;7.152;2022-07-05T09:55:27;3.75;;;1.58;;
19543;SDS011;9917;51.256;7.152;2022-07-05T09:57:53;5.35;;;1.90;;
19543;SDS011;9917;51.256;7.152;2022-07-05T10:00:20;3.67;;;2.08;;
19543;SDS011;9917;51.256;7.152;2022-07-05T10:02:47;3.78;;;1.83;;
19543;SDS011;9917;51.256;7.152;2022-07-05T10:05:15;3.80;;;1.60;;
19543;SDS011;9917;51.256;7.152;2022-07-05T10:07:44;3.88;;;1.75;;
19543;SDS011;9917;51.256;7.152;2022-07-05T10:10:11;6.30;;;1.80;;
19543;SDS011;9917;51.256;7.152;2022-07-05T10:12:38;4.18;;;1.80;;
19543;SDS011;9917;51.256;7.152;2022-07-05T10:15:06;3.45;;;1.35;;
19543;SDS011;9917;51.256;7.152;2022-07-05T10:17:35;4.88;;;2.10;;
19543;SDS011;9917;51.256;7.152;2022-07-05T10:20:02;4.57;;;1.60;;
19543;SDS011;9917;51.256;7.152;2022-07-05T10:22:30;4.03;;;1.40;;
19543;SDS011;9917;51.256;7.152;2022-07-05T10:24:57;3.03;;;1.10;;
19543;SDS011;9917;51.256;7.152;2022-07-05T10:27:26;4.18;;;1.33;;
19543;SDS011;9917;51.256;7.152;2022-07-05T10:29:54;1.55;;;0.90;;
19543;SDS011;9917;51.256;7.152;2022-07-05T10:32:22;1.75;;;0.52;;
19543;SDS011;9917;51.256;7.152;2022-07-05T10:34:48;5.47;;;0.82;;
19543;SDS011;9917;51.256;7.152;2022-07-05T10:37:16;2.35;;;0.70;;
19543;SDS011;9917;51.256;7.152;2022-07-05T10:39:42;5.78;;;1.20;;
19543;SDS011;9917;51.256;7.152;2022-07-05T10:42:09;4.35;;;0.98;;
19543;SDS011;9917;51.256;7.152;2022-07-05T10:44:35;5.63;;;2.42;;
19543;SDS011;9917;51.256;7.152;2022-07-05T10:47:08;6.80;;;3.03;;
19543;SDS011;9917;51.256;7.152;2022-07-05T10:49:35;4.05;;;1.77;;
19543;SDS011;9917;51.256;7.152;2022-07-05T10:52:01;4.95;;;1.33;;
19543;SDS011;9917;51.256;7.152;2022-07-05T10:54:27;1.77;;;0.77;;
19543;SDS011;9917;51.256;7.152;2022-07-05T11:00:05;1.60;;;0.90;;
19543;SDS011;9917;51.256;7.152;2022-07-05T11:02:32;2.28;;;1.25;;
19543;SDS011;9917;51.256;7.152;2022-07-05T11:04:58;4.60;;;1.13;;
19543;SDS011;9917;51.256;7.152;2022-07-05T11:10:26;2.65;;;1.00;;
19543;SDS011;9917;51.256;7.152;2022-07-05T11:12:53;2.83;;;1.00;;
19543;SDS011;9917;51.256;7.152;2022-07-05T11:15:19;4.55;;;2.25;;
19543;SDS011;9917;51.256;7.152;2022-07-05T11:17:46;4.03;;;1.10;;
19543;SDS011;9917;51.256;7.152;2022-07-05T11:20:16;2.63;;;0.70;;
19543;SDS011;9917;51.256;7.152;2022-07-05T11:25:35;10.07;;;1.30;;
19543;SDS011;9917;51.256;7.152;2022-07-05T11:28:07;1.45;;;0.70;;
19543;SDS011;9917;51.256;7.152;2022-07-05T11:30:44;4.05;;;0.68;;
19543;SDS011;9917;51.256;7.152;2022-07-05T11:33:31;1.13;;;0.57;;
19543;SDS011;9917;51.256;7.152;2022-07-05T11:35:58;8.02;;;1.00;;
19543;SDS011;9917;51.256;7.152;2022-07-05T11:38:24;3.75;;;1.30;;
19543;SDS011;9917;51.256;7.152;2022-07-05T11:40:51;2.35;;;0.60;;
19543;SDS011;9917;51.256;7.152;2022-07-05T11:43:26;2.70;;;0.75;;
19543;SDS011;9917;51.256;7.152;2022-07-05T11:45:55;4.28;;;1.42;;
19543;SDS011;9917;51.256;7.152;2022-07-05T11:48:21;3.70;;;1.42;;
19543;SDS011;9917;51.256;7.152;2022-07-05T11:50:48;5.05;;;2.00;;
19543;SDS011;9917;51.256;7.152;2022-07-05T11:53:14;4.45;;;0.98;;
19543;SDS011;9917;51.256;7.152;2022-07-05T11:55:53;4.47;;;0.80;;
19543;SDS011;9917;51.256;7.152;2022-07-05T11:58:19;4.03;;;0.88;;
19543;SDS011;9917;51.256;7.152;2022-07-05T12:00:52;3.55;;;1.30;;
19543;SDS011;9917;51.256;7.152;2022-07-05T12:03:19;6.15;;;1.73;;
19543;SDS011;9917;51.256;7.152;2022-07-05T12:05:46;1.95;;;0.60;;
19543;SDS011;9917;51.256;7.152;2022-07-05T12:08:19;1.88;;;0.77;;
19543;SDS011;9917;51.256;7.152;2022-07-05T12:10:45;3.70;;;1.00;;
19543;SDS011;9917;51.256;7.152;2022-07-05T12:13:11;2.53;;;0.70;;
19543;SDS011;9917;51.256;7.152;2022-07-05T12:15:38;2.03;;;1.15;;
19543;SDS011;9917;51.256;7.152;2022-07-05T12:18:06;7.38;;;2.92;;
19543;SDS011;9917;51.256;7.152;2022-07-05T12:20:33;7.78;;;3.35;;
19543;SDS011;9917;51.256;7.152;2022-07-05T12:23:00;8.30;;;3.22;;
19543;SDS011;9917;51.256;7.152;2022-07-05T12:25:27;7.13;;;2.90;;
19543;SDS011;9917;51.256;7.152;2022-07-05T12:27:54;4.90;;;1.45;;
19543;SDS011;9917;51.256;7.152;2022-07-05T12:30:21;6.20;;;4.22;;
19543;SDS011;9917;51.256;7.152;2022-07-05T12:32:58;6.32;;;1.60;;
19543;SDS011;9917;51.256;7.152;2022-07-05T12:35:30;6.63;;;1.20;;
19543;SDS011;9917;51.256;7.152;2022-07-05T12:38:04;3.67;;;1.20;;
19543;SDS011;9917;51.256;7.152;2022-07-05T12:40:31;3.47;;;1.10;;
19543;SDS011;9917;51.256;7.152;2022-07-05T12:45:42;2.88;;;1.30;;
19543;SDS011;9917;51.256;7.152;2022-07-05T12:48:10;5.50;;;3.70;;
19543;SDS011;9917;51.256;7.152;2022-07-05T12:50:45;3.90;;;1.00;;
19543;SDS011;9917;51.256;7.152;2022-07-05T12:53:14;3.30;;;1.35;;
19543;SDS011;9917;51.256;7.152;2022-07-05T12:55:40;1.67;;;0.85;;
19543;SDS011;9917;51.256;7.152;2022-07-05T12:58:06;3.60;;;0.80;;
19543;SDS011;9917;51.256;7.152;2022-07-05T13:00:32;4.43;;;0.88;;
19543;SDS011;9917;51.256;7.152;2022-07-05T13:03:03;5.85;;;1.00;;
19543;SDS011;9917;51.256;7.152;2022-07-05T13:05:31;3.28;;;1.55;;
19543;SDS011;9917;51.256;7.152;2022-07-05T13:07:58;1.88;;;0.80;;
19543;SDS011;9917;51.256;7.152;2022-07-05T13:10:25;4.80;;;2.08;;
19543;SDS011;9917;51.256;7.152;2022-07-05T13:12:51;8.02;;;2.60;;
19543;SDS011;9917;51.256;7.152;2022-07-05T13:15:18;3.63;;;1.85;;
19543;SDS011;9917;51.256;7.152;2022-07-05T13:17:44;10.05;;;3.78;;
19543;SDS011;9917;51.256;7.152;2022-07-05T13:20:12;2.30;;;1.20;;
19543;SDS011;9917;51.256;7.152;2022-07-05T13:22:38;2.30;;;1.20;;
19543;SDS011;9917;51.256;7.152;2022-07-05T13:25:06;4.40;;;1.80;;
19543;SDS011;9917;51.256;7.152;2022-07-05T13:27:34;9.10;;;2.40;;
19543;SDS011;9917;51.256;7.152;2022-07-05T13:30:00;6.57;;;3.47;;
19543;SDS011;9917;51.256;7.152;2022-07-05T13:32:26;3.45;;;1.58;;
19543;SDS011;9917;51.256;7.152;2022-07-05T13:34:53;2.33;;;1.27;;
19543;SDS011;9917;51.256;7.152;2022-07-05T13:37:22;4.00;;;1.55;;
19543;SDS011;9917;51.256;7.152;2022-07-05T13:39:48;3.88;;;0.98;;
19543;SDS011;9917;51.256;7.152;2022-07-05T13:42:23;2.38;;;1.00;;
19543;SDS011;9917;51.256;7.152;2022-07-05T13:44:49;3.70;;;1.08;;
19543;SDS011;9917;51.256;7.152;2022-07-05T13:47:19;3.55;;;1.70;;
19543;SDS011;9917;51.256;7.152;2022-07-05T13:49:45;5.03;;;1.60;;
19543;SDS011;9917;51.256;7.152;2022-07-05T13:52:11;3.95;;;1.73;;
19543;SDS011;9917;51.256;7.152;2022-07-05T13:54:37;3.05;;;1.40;;
19543;SDS011;9917;51.256;7.152;2022-07-05T13:57:04;3.40;;;1.52;;
19543;SDS011;9917;51.256;7.152;2022-07-05T13:59:35;3.25;;;1.38;;
19543;SDS011;9917;51.256;7.152;2022-07-05T14:02:00;8.73;;;4.60;;
19543;SDS011;9917;51.256;7.152;2022-07-05T14:04:27;5.00;;;1.30;;
19543;SDS011;9917;51.256;7.152;2022-07-05T14:06:53;2.13;;;0.90;;
19543;SDS011;9917;51.256;7.152;2022-07-05T14:09:19;1.88;;;0.85;;
19543;SDS011;9917;51.256;7.152;2022-07-05T14:11:47;3.00;;;1.05;;
19543;SDS011;9917;51.256;7.152;2022-07-05T14:14:13;4.00;;;1.00;;
19543;SDS011;9917;51.256;7.152;2022-07-05T14:16:40;3.67;;;0.95;;
19543;SDS011;9917;51.256;7.152;2022-07-05T14:19:06;5.88;;;1.23;;
19543;SDS011;9917;51.256;7.152;2022-07-05T14:21:32;3.80;;;1.02;;
19543;SDS011;9917;51.256;7.152;2022-07-05T14:23:58;3.40;;;1.77;;
19543;SDS011;9917;51.256;7.152;2022-07-05T14:26:25;2.95;;;1.30;;
19543;SDS011;9917;51.256;7.152;2022-07-05T14:28:51;2.75;;;1.10;;
19543;SDS011;9917;51.256;7.152;2022-07-05T14:33:47;2.78;;;1.50;;
19543;SDS011;9917;51.256;7.152;2022-07-05T14:36:14;5.95;;;1.92;;
19543;SDS011;9917;51.256;7.152;2022-07-05T14:38:40;3.63;;;1.70;;
19543;SDS011;9917;51.256;7.152;2022-07-05T14:41:06;5.55;;;2.92;;
19543;SDS011;9917;51.256;7.152;2022-07-05T14:43:32;13.10;;;7.45;;
19543;SDS011;9917;51.256;7.152;2022-07-05T14:45:58;7.18;;;3.95;;
19543;SDS011;9917;51.256;7.152;2022-07-05T14:48:25;5.88;;;3.55;;
19543;SDS011;9917;51.256;7.152;2022-07-05T14:50:53;4.03;;;1.38;;
19543;SDS011;9917;51.256;7.152;2022-07-05T14:53:19;5.32;;;1.33;;
19543;SDS011;9917;51.256;7.152;2022-07-05T14:55:45;4.63;;;1.23;;
19543;SDS011;9917;51.256;7.152;2022-07-05T14:58:11;3.83;;;1.00;;
19543;SDS011;9917;51.256;7.152;2022-07-05T15:00:37;6.15;;;3.28;;
19543;SDS011;9917;51.256;7.152;2022-07-05T15:03:04;8.05;;;2.50;;
19543;SDS011;9917;51.256;7.152;2022-07-05T15:08:01;3.75;;;1.95;;
19543;SDS011;9917;51.256;7.152;2022-07-05T15:10:27;5.05;;;2.15;;
19543;SDS011;9917;51.256;7.152;2022-07-05T15:12:53;6.13;;;2.97;;
19543;SDS011;9917;51.256;7.152;2022-07-05T15:15:19;5.90;;;3.50;;
19543;SDS011;9917;51.256;7.152;2022-07-05T15:17:45;11.82;;;6.65;;